Time;durP1;ratioP1;P1;durP2;ratioP2;P2;SDS_P1;SDS_P2;PMS_P1;PMS_P2;Temp;Humidity;BMP_temperature;BMP_pressure;BME280_temperature;BME280_humidity;BME280_pressure;Samples;Min_cycle;Max_cycle;Signal;HPM_P1;HPM_P2
2022/05/04 00:00:20;;;;;;;4.23;3.60;;;12.70;99.90;;;;;;5012310;28;20199;-74
2022/05/04 00:02:45;;;;;;;5.13;4.27;;;12.50;99.90;;;;;;5012333;28;20429;-74
2022/05/04 00:05:11;;;;;;;6.27;4.00;;;12.40;99.90;;;;;;5012268;28;20905;-74
2022/05/04 00:07:37;;;;;;;3.90;3.13;;;12.40;99.90;;;;;;5029852;28;20262;-74
2022/05/04 00:10:04;;;;;;;5.53;3.30;;;12.40;99.90;;;;;;5029834;28;20181;-74
2022/05/04 00:12:31;;;;;;;5.57;3.77;;;12.40;99.90;;;;;;5011738;28;20815;-74
2022/05/04 00:14:56;;;;;;;3.93;3.00;;;12.40;99.90;;;;;;5029286;28;20423;-74
2022/05/04 00:17:22;;;;;;;3.30;3.00;;;12.40;99.90;;;;;;5029256;28;20435;-73
2022/05/04 00:19:48;;;;;;;4.97;3.47;;;12.30;99.90;;;;;;5029375;28;20232;-74
2022/05/04 00:22:20;;;;;;;4.87;3.73;;;12.20;99.90;;;;;;5029285;28;20554;-74
2022/05/04 00:24:47;;;;;;;4.03;3.20;;;12.20;99.90;;;;;;5011954;28;20680;-73
2022/05/04 00:27:15;;;;;;;3.00;2.80;;;12.30;99.90;;;;;;5029175;28;20411;-74
2022/05/04 00:29:43;;;;;;;5.87;4.03;;;12.00;99.90;;;;;;5011643;28;21000;-74
2022/05/04 00:32:14;;;;;;;5.83;3.67;;;11.90;99.90;;;;;;5029083;28;20773;-73
2022/05/04 00:34:43;;;;;;;7.60;3.70;;;12.00;99.90;;;;;;5028944;28;20450;-74
2022/05/04 00:37:09;;;;;;;6.00;4.10;;;12.00;99.90;;;;;;5010821;28;20425;-74
2022/05/04 00:39:35;;;;;;;7.13;3.73;;;12.00;99.90;;;;;;5010567;28;20446;-74
2022/05/04 00:42:13;;;;;;;3.97;3.53;;;12.00;99.90;;;;;;5028693;28;20429;-74
2022/05/04 00:44:40;;;;;;;5.30;4.30;;;12.00;99.90;;;;;;5010781;28;20460;-74
2022/05/04 00:47:06;;;;;;;4.80;3.67;;;12.00;99.90;;;;;;5028698;28;20423;-74
2022/05/04 00:49:32;;;;;;;7.20;4.03;;;12.00;99.90;;;;;;5028775;28;20442;-74
2022/05/04 00:51:58;;;;;;;4.63;3.60;;;12.00;99.90;;;;;;5011079;28;20418;-74
2022/05/04 00:54:25;;;;;;;7.93;4.20;;;12.00;99.90;;;;;;5030608;28;20437;-74
2022/05/04 00:56:52;;;;;;;5.37;4.40;;;11.90;99.90;;;;;;5035308;28;20421;-77
2022/05/04 00:59:20;;;;;;;6.00;4.33;;;11.90;99.90;;;;;;5050974;28;20446;-77
2022/05/04 01:01:47;;;;;;;5.90;4.73;;;11.80;99.90;;;;;;5054550;28;20433;-76
2022/05/04 01:04:12;;;;;;;9.57;4.70;;;11.80;99.90;;;;;;5055261;28;20429;-76
2022/05/04 01:06:38;;;;;;;6.87;4.63;;;11.70;99.90;;;;;;5044458;28;20445;-74
2022/05/04 01:09:04;;;;;;;11.80;5.80;;;11.70;99.90;;;;;;5032818;28;20691;-73
2022/05/04 01:11:30;;;;;;;5.70;4.80;;;11.60;99.90;;;;;;5032858;28;20659;-74
2022/05/04 01:14:02;;;;;;;4.93;4.43;;;11.60;99.90;;;;;;5015477;28;20439;-73
2022/05/04 01:16:29;;;;;;;6.80;5.40;;;11.50;99.90;;;;;;5014800;28;20651;-73
2022/05/04 01:18:55;;;;;;;9.30;6.07;;;11.50;99.90;;;;;;5015019;28;20808;-71
2022/05/04 01:21:21;;;;;;;8.13;5.20;;;11.50;99.90;;;;;;5032480;28;20423;-71
2022/05/04 01:23:47;;;;;;;8.90;6.70;;;11.50;99.90;;;;;;5032559;28;20410;-72
2022/05/04 01:26:18;;;;;;;14.57;10.60;;;11.20;99.90;;;;;;5032070;28;20218;-72
2022/05/04 01:28:45;;;;;;;5.73;4.33;;;11.00;99.90;;;;;;5032238;28;20209;-74
2022/05/04 01:31:11;;;;;;;6.50;3.80;;;11.10;99.90;;;;;;5032173;28;20425;-73
2022/05/04 01:33:37;;;;;;;8.70;3.43;;;11.10;99.90;;;;;;5032386;28;20420;-73
2022/05/04 01:36:03;;;;;;;20.97;3.90;;;11.10;99.90;;;;;;5032269;28;20431;-73
2022/05/04 01:38:29;;;;;;;9.10;4.00;;;11.10;99.90;;;;;;5014428;28;20453;-72
2022/05/04 01:40:54;;;;;;;11.53;4.00;;;11.10;99.90;;;;;;5031981;28;20430;-74
2022/05/04 01:43:20;;;;;;;7.30;3.60;;;11.00;99.90;;;;;;5032108;28;20321;-73
2022/05/04 01:45:46;;;;;;;4.43;4.00;;;11.00;99.90;;;;;;5031842;28;20213;-75
2022/05/04 01:48:11;;;;;;;7.50;4.73;;;10.90;99.90;;;;;;5031994;28;20208;-73
2022/05/04 01:50:37;;;;;;;5.17;4.67;;;10.90;99.90;;;;;;4997759;28;20334;-73
2022/05/04 01:53:03;;;;;;;8.53;4.40;;;10.80;99.90;;;;;;5032038;28;20187;-74
2022/05/04 01:55:33;;;;;;;8.60;4.50;;;10.80;99.90;;;;;;5031780;28;20192;-73
2022/05/04 01:57:59;;;;;;;6.30;4.00;;;10.80;99.90;;;;;;5032148;28;20214;-72
2022/05/04 02:00:24;;;;;;;12.13;4.40;;;10.80;99.90;;;;;;5031925;28;20459;-73
2022/05/04 02:02:50;;;;;;;8.03;4.40;;;10.70;99.90;;;;;;5031925;28;20425;-73
2022/05/04 02:05:16;;;;;;;6.87;4.10;;;10.70;99.90;;;;;;5031887;28;20206;-73
2022/05/04 02:07:43;;;;;;;4.60;4.10;;;10.70;99.90;;;;;;5032144;28;20920;-73
2022/05/04 02:10:10;;;;;;;7.40;4.00;;;10.70;99.90;;;;;;5032157;28;20419;-73
2022/05/04 02:12:36;;;;;;;5.67;4.13;;;10.70;99.90;;;;;;5032288;28;20416;-72
2022/05/04 02:15:06;;;;;;;8.10;3.57;;;10.70;99.90;;;;;;5031836;28;20429;-72
2022/05/04 02:17:32;;;;;;;6.07;5.20;;;10.60;99.90;;;;;;5031949;28;20432;-74
2022/05/04 02:19:58;;;;;;;5.53;4.63;;;10.50;99.90;;;;;;5014008;28;20440;-74
2022/05/04 02:22:23;;;;;;;7.83;5.43;;;10.30;99.90;;;;;;5031816;28;20244;-74
2022/05/04 02:24:49;;;;;;;7.00;4.70;;;10.50;99.90;;;;;;5031497;28;20558;-73
2022/05/04 02:27:15;;;;;;;5.77;4.40;;;10.50;99.90;;;;;;5031632;28;20219;-73
2022/05/04 02:29:40;;;;;;;5.73;4.07;;;10.60;99.90;;;;;;5031393;28;20667;-74
2022/05/04 02:32:10;;;;;;;5.40;4.10;;;10.50;99.90;;;;;;5031928;28;20192;-73
2022/05/04 02:40:05;;;;;;;10.50;3.70;;;10.30;99.90;;;;;;5031099;28;20432;-73
2022/05/04 02:42:31;;;;;;;7.23;3.80;;;10.30;99.90;;;;;;5012969;28;20444;-72
2022/05/04 02:44:56;;;;;;;4.30;3.53;;;10.40;99.90;;;;;;5030818;28;20840;-72
2022/05/04 02:47:22;;;;;;;9.60;4.13;;;10.40;99.90;;;;;;5031490;28;20432;-73
2022/05/04 02:49:48;;;;;;;4.40;3.73;;;10.60;99.90;;;;;;5031332;28;20202;-72
2022/05/04 02:52:13;;;;;;;5.77;3.03;;;10.60;99.90;;;;;;5013532;28;20248;-72
2022/05/04 02:54:39;;;;;;;6.33;3.40;;;10.80;99.90;;;;;;5013502;28;20185;-74
2022/05/04 02:57:05;;;;;;;4.33;3.33;;;10.90;99.90;;;;;;5031352;28;20377;-72
2022/05/04 02:59:30;;;;;;;6.00;3.77;;;10.90;99.90;;;;;;5013360;28;20678;-73
2022/05/04 03:04:40;;;;;;;5.23;3.90;;;10.80;99.90;;;;;;5030666;28;20255;-73
2022/05/04 03:07:06;;;;;;;5.70;3.97;;;10.80;99.90;;;;;;5030510;28;20463;-73
2022/05/04 03:09:31;;;;;;;4.80;4.03;;;10.80;99.90;;;;;;5030116;28;20212;-74
2022/05/04 03:11:57;;;;;;;12.93;3.90;;;10.80;99.90;;;;;;5030167;28;20432;-73
2022/05/04 03:14:28;;;;;;;4.30;3.70;;;10.80;99.90;;;;;;5012488;28;20197;-73
2022/05/04 03:16:54;;;;;;;6.03;4.07;;;10.80;99.90;;;;;;5030060;28;20182;-73
2022/05/04 03:19:24;;;;;;;7.97;4.70;;;10.80;99.90;;;;;;5029970;28;20440;-73
2022/05/04 03:21:50;;;;;;;9.63;4.20;;;10.80;99.90;;;;;;5029982;28;20532;-73
2022/05/04 03:24:16;;;;;;;7.90;4.30;;;10.80;99.90;;;;;;5029835;28;20424;-73
2022/05/04 03:26:43;;;;;;;9.67;4.20;;;10.80;99.90;;;;;;5011268;28;20533;-72
2022/05/04 03:29:09;;;;;;;9.20;4.20;;;10.70;99.90;;;;;;5012399;28;20819;-73
2022/05/04 03:31:35;;;;;;;5.87;4.30;;;10.80;99.90;;;;;;5029761;28;20453;-73
2022/05/04 03:34:02;;;;;;;4.60;4.20;;;10.80;99.90;;;;;;5030446;28;20427;-72
2022/05/04 03:36:30;;;;;;;11.73;4.07;;;10.70;99.90;;;;;;5029766;28;20423;-72
2022/05/04 03:38:56;;;;;;;4.50;4.10;;;10.70;99.90;;;;;;5029855;28;20943;-73
2022/05/04 03:41:22;;;;;;;6.77;5.10;;;10.80;99.90;;;;;;5011876;28;20462;-73
2022/05/04 03:43:51;;;;;;;7.80;4.60;;;10.80;99.90;;;;;;5029624;28;20491;-73
2022/05/04 03:46:19;;;;;;;4.70;4.30;;;10.70;99.90;;;;;;5029341;28;20265;-73
2022/05/04 03:48:47;;;;;;;4.33;3.93;;;10.60;99.90;;;;;;5029365;28;20444;-73
2022/05/04 03:51:19;;;;;;;6.37;4.80;;;10.70;99.90;;;;;;5029560;28;20428;-72
2022/05/04 03:53:45;;;;;;;4.67;4.17;;;10.70;99.90;;;;;;5029665;28;20497;-76
2022/05/04 03:56:11;;;;;;;5.07;4.50;;;10.70;99.90;;;;;;5029425;28;20463;-76
2022/05/04 03:58:40;;;;;;;7.83;4.60;;;10.80;99.90;;;;;;5011492;28;20504;-76
2022/05/04 04:01:06;;;;;;;5.17;4.33;;;10.80;99.90;;;;;;5011294;28;20553;-76
2022/05/04 04:03:32;;;;;;;5.20;4.70;;;10.80;99.90;;;;;;5029355;28;20467;-77
2022/05/04 04:05:58;;;;;;;5.30;4.60;;;10.80;99.90;;;;;;4995737;28;20539;-76
2022/05/04 04:08:25;;;;;;;5.53;5.00;;;10.90;99.90;;;;;;5030513;28;20494;-77
2022/05/04 04:10:54;;;;;;;4.60;4.17;;;10.80;99.90;;;;;;5011218;28;20435;-76
2022/05/04 04:13:20;;;;;;;8.70;4.30;;;10.80;99.90;;;;;;5027861;28;20830;-76
2022/05/04 04:15:47;;;;;;;6.87;4.97;;;10.90;99.90;;;;;;5027481;28;20488;-76
2022/05/04 04:18:13;;;;;;;6.00;5.20;;;10.80;99.90;;;;;;5009540;28;20449;-76
2022/05/04 04:23:23;;;;;;;10.37;5.80;;;10.80;99.90;;;;;;5027663;28;20655;-76
2022/05/04 04:25:48;;;;;;;7.20;5.70;;;10.60;99.90;;;;;;5027121;28;20472;-76
2022/05/04 04:28:14;;;;;;;5.80;5.30;;;10.60;99.90;;;;;;5027287;28;20254;-76
2022/05/04 04:30:40;;;;;;;7.90;6.40;;;10.50;99.90;;;;;;5027170;28;20264;-76
2022/05/04 04:33:06;;;;;;;8.00;5.67;;;10.60;99.90;;;;;;5009398;28;20216;-76
2022/05/04 04:35:36;;;;;;;5.80;5.20;;;10.60;99.90;;;;;;5027489;28;20556;-76
2022/05/04 04:38:02;;;;;;;4.87;4.30;;;10.70;99.90;;;;;;5009534;28;20971;-76
2022/05/04 04:40:28;;;;;;;6.23;4.70;;;10.70;99.90;;;;;;5009535;28;21211;-76
2022/05/04 04:42:53;;;;;;;7.03;4.70;;;10.80;99.90;;;;;;5009565;28;20421;-76
2022/05/04 04:45:19;;;;;;;4.53;4.13;;;10.90;99.90;;;;;;5027183;28;20486;-76
2022/05/04 04:47:48;;;;;;;5.07;4.30;;;10.90;99.90;;;;;;5027226;28;20214;-76
2022/05/04 04:50:14;;;;;;;4.50;4.10;;;11.00;99.90;;;;;;5027235;28;20181;-76
2022/05/04 04:52:40;;;;;;;4.87;4.33;;;11.00;99.90;;;;;;5010031;28;20432;-76
2022/05/04 04:55:06;;;;;;;4.60;4.20;;;11.00;99.90;;;;;;5009675;28;20429;-76
2022/05/04 04:57:33;;;;;;;4.77;4.30;;;11.00;99.90;;;;;;5009315;28;20438;-76
2022/05/04 04:59:59;;;;;;;7.10;5.00;;;11.10;99.90;;;;;;5027458;28;20425;-77
2022/05/04 05:02:25;;;;;;;7.03;4.43;;;11.10;99.90;;;;;;5027610;28;20510;-77
2022/05/04 05:04:51;;;;;;;6.90;4.73;;;11.20;99.90;;;;;;5027459;28;20908;-77
2022/05/04 05:07:16;;;;;;;5.50;5.00;;;11.20;99.90;;;;;;5009513;28;20520;-75
2022/05/04 05:09:42;;;;;;;11.10;5.63;;;11.10;99.90;;;;;;5009560;28;20216;-76
2022/05/04 05:12:08;;;;;;;9.97;6.30;;;11.10;99.90;;;;;;5027260;28;20263;-75
2022/05/04 05:17:18;;;;;;;8.37;6.30;;;11.20;99.90;;;;;;5012001;28;20508;-76
2022/05/04 05:19:43;;;;;;;11.63;6.80;;;11.40;99.90;;;;;;5026926;28;20498;-76
2022/05/04 05:22:09;;;;;;;5.10;4.70;;;11.40;99.90;;;;;;5008937;28;20321;-76
2022/05/04 05:24:35;;;;;;;5.90;4.50;;;11.30;99.90;;;;;;5026805;28;20246;-76
2022/05/04 05:27:00;;;;;;;6.67;4.27;;;11.20;99.90;;;;;;5027110;28;20203;-76
2022/05/04 05:29:26;;;;;;;8.73;4.60;;;11.30;99.90;;;;;;5008730;28;20611;-75
2022/05/04 05:31:51;;;;;;;10.03;4.80;;;11.40;99.90;;;;;;5027180;28;20265;-77
2022/05/04 05:34:17;;;;;;;9.07;6.17;;;11.60;99.90;;;;;;5026797;28;20287;-75
2022/05/04 05:36:44;;;;;;;6.30;4.27;;;11.70;99.90;;;;;;5027065;28;20648;-76
2022/05/04 05:39:10;;;;;;;5.43;4.93;;;11.80;99.90;;;;;;5027479;28;21000;-76
2022/05/04 05:41:35;;;;;;;4.13;3.67;;;12.00;99.90;;;;;;5011253;28;20423;-76
2022/05/04 05:44:01;;;;;;;3.70;3.00;;;12.10;99.90;;;;;;5028663;28;20251;-76
2022/05/04 05:46:29;;;;;;;5.63;3.63;;;12.30;99.90;;;;;;5011085;28;20272;-75
2022/05/04 05:48:54;;;;;;;4.63;3.93;;;12.50;99.90;;;;;;5028481;28;20207;-75
2022/05/04 05:51:20;;;;;;;7.20;4.20;;;12.70;99.90;;;;;;5030748;28;20804;-76
2022/05/04 05:53:46;;;;;;;4.47;4.03;;;13.00;99.90;;;;;;5031641;28;20257;-76
2022/05/04 05:56:11;;;;;;;4.73;4.23;;;13.20;99.90;;;;;;5032121;28;20195;-76
2022/05/04 05:58:40;;;;;;;4.00;3.70;;;13.40;99.90;;;;;;5012488;28;20299;-76
2022/05/04 06:01:06;;;;;;;4.53;4.10;;;13.60;99.90;;;;;;5012594;28;20199;-76
2022/05/04 06:03:31;;;;;;;7.33;4.40;;;13.80;99.90;;;;;;4995855;28;20438;-76
2022/05/04 06:05:57;;;;;;;4.20;3.80;;;14.00;99.90;;;;;;5012205;28;20295;-76
2022/05/04 06:08:23;;;;;;;6.67;4.27;;;14.20;99.90;;;;;;5011855;28;20220;-75
2022/05/04 06:10:48;;;;;;;5.53;4.60;;;14.20;99.90;;;;;;5029860;28;20657;-75
2022/05/04 06:13:14;;;;;;;6.27;4.40;;;14.30;99.90;;;;;;5029776;28;20193;-75
2022/05/04 06:15:39;;;;;;;6.93;4.93;;;14.20;99.90;;;;;;5029863;28;20223;-76
2022/05/04 06:18:05;;;;;;;4.83;4.43;;;14.30;99.90;;;;;;5029739;28;20213;-76
2022/05/04 06:20:31;;;;;;;5.30;4.83;;;14.40;99.90;;;;;;5029642;28;20191;-76
2022/05/04 06:22:57;;;;;;;7.93;4.50;;;14.60;99.90;;;;;;5029696;28;20860;-76
2022/05/04 06:25:23;;;;;;;4.40;4.00;;;14.90;99.90;;;;;;5029306;28;20599;-76
2022/05/04 06:27:49;;;;;;;4.03;3.73;;;15.20;99.90;;;;;;5029697;28;20262;-76
2022/05/04 06:35:42;;;;;;;4.50;3.20;;;15.90;99.90;;;;;;5029285;28;21245;-76
2022/05/04 06:38:09;;;;;;;4.30;3.90;;;16.20;99.90;;;;;;5011352;28;20451;-76
2022/05/04 06:40:34;;;;;;;6.80;4.07;;;16.40;99.90;;;;;;5029169;28;20569;-76
2022/05/04 06:43:00;;;;;;;5.00;4.47;;;16.50;99.90;;;;;;5029300;28;20429;-76
2022/05/04 06:45:26;;;;;;;4.30;3.90;;;16.70;99.90;;;;;;5029143;28;20590;-76
2022/05/04 06:47:51;;;;;;;4.37;3.90;;;17.00;99.90;;;;;;5029356;28;20205;-76
2022/05/04 06:50:17;;;;;;;7.80;3.87;;;17.20;99.90;;;;;;5029363;28;20195;-76
2022/05/04 06:52:43;;;;;;;3.93;3.10;;;17.40;99.90;;;;;;5029192;28;20185;-77
2022/05/04 06:55:09;;;;;;;6.30;3.30;;;17.50;99.90;;;;;;5029136;28;20181;-76
2022/05/04 06:57:36;;;;;;;3.20;2.73;;;17.60;99.90;;;;;;5029174;28;20182;-76
2022/05/04 07:00:06;;;;;;;3.33;3.03;;;17.80;99.90;;;;;;5029456;28;20444;-76
2022/05/04 07:02:33;;;;;;;3.50;2.87;;;18.00;99.90;;;;;;5029270;28;20433;-76
2022/05/04 07:05:03;;;;;;;3.80;2.50;;;18.10;99.90;;;;;;5011792;28;20866;-76
2022/05/04 07:07:28;;;;;;;4.80;3.27;;;18.10;99.90;;;;;;5011455;28;20985;-77
2022/05/04 07:09:58;;;;;;;3.00;2.70;;;18.10;99.90;;;;;;5029327;28;20445;-77
2022/05/04 07:12:24;;;;;;;7.93;3.40;;;18.10;99.90;;;;;;5029148;28;20183;-77
2022/05/04 07:14:51;;;;;;;8.27;4.27;;;18.20;99.90;;;;;;5029013;28;20426;-76
2022/05/04 07:17:17;;;;;;;3.50;3.20;;;18.30;99.90;;;;;;5029028;28;20424;-77
2022/05/04 07:19:43;;;;;;;5.13;3.80;;;18.60;99.90;;;;;;5028636;28;20502;-77
2022/05/04 07:22:09;;;;;;;5.27;3.73;;;18.60;99.90;;;;;;5028936;28;20422;-77
2022/05/04 07:24:35;;;;;;;5.07;3.90;;;18.40;99.90;;;;;;5029379;28;20268;-77
2022/05/04 07:27:03;;;;;;;4.27;3.87;;;18.30;99.90;;;;;;5011371;28;20219;-76
2022/05/04 07:29:29;;;;;;;5.33;3.87;;;18.20;99.90;;;;;;5028489;28;20210;-76
2022/05/04 07:31:54;;;;;;;7.23;4.50;;;18.10;99.90;;;;;;5010661;28;20419;-76
2022/05/04 07:34:20;;;;;;;6.40;4.33;;;18.30;99.90;;;;;;5010249;28;20199;-77
2022/05/04 07:36:46;;;;;;;6.60;4.07;;;18.40;99.90;;;;;;5028335;28;20204;-76
2022/05/04 07:42:21;;;;;;;7.97;5.00;;;18.60;99.90;;;;;;5028460;28;20300;-76
2022/05/04 07:44:45;;;;;;;5.00;3.90;;;18.50;99.90;;;;;;5014115;28;20483;-77
2022/05/04 07:47:11;;;;;;;5.20;4.20;;;18.60;99.90;;;;;;5010498;28;20426;-76
2022/05/04 07:49:37;;;;;;;7.93;4.00;;;18.60;99.90;;;;;;5028086;28;20205;-76
2022/05/04 07:52:03;;;;;;;4.67;4.27;;;18.70;99.90;;;;;;5010182;28;20422;-76
2022/05/04 07:54:29;;;;;;;6.70;3.83;;;18.90;99.90;;;;;;5027933;28;20181;-76
2022/05/04 07:56:55;;;;;;;7.93;3.43;;;19.10;99.90;;;;;;5012743;28;20430;-76
2022/05/04 07:59:20;;;;;;;4.17;3.43;;;19.30;99.90;;;;;;4995852;28;21009;-76
2022/05/04 08:04:30;;;;;;;3.97;3.40;;;19.20;99.90;;;;;;5028162;28;20252;-76
2022/05/04 08:06:59;;;;;;;3.40;3.10;;;19.10;99.90;;;;;;5027902;28;20434;-76
2022/05/04 08:09:24;;;;;;;5.07;3.73;;;19.10;99.90;;;;;;5027845;28;20689;-76
2022/05/04 08:11:50;;;;;;;6.77;3.40;;;18.90;99.90;;;;;;5010049;28;20461;-76
2022/05/04 08:14:16;;;;;;;4.07;3.53;;;18.60;99.90;;;;;;5027523;28;20190;-76
2022/05/04 08:16:42;;;;;;;4.13;3.67;;;18.50;99.90;;;;;;5027955;28;20727;-76
2022/05/04 08:19:08;;;;;;;4.73;3.77;;;18.70;99.90;;;;;;5027414;28;20444;-76
2022/05/04 08:21:36;;;;;;;3.70;3.40;;;18.70;99.90;;;;;;5009795;28;20191;-77
2022/05/04 08:24:02;;;;;;;7.90;4.03;;;18.70;99.90;;;;;;5027679;28;20242;-76
2022/05/04 08:26:27;;;;;;;6.07;3.23;;;18.80;99.90;;;;;;5027313;28;20478;-76
2022/05/04 08:28:53;;;;;;;4.13;3.70;;;18.70;99.90;;;;;;5009764;28;20528;-76
2022/05/04 08:31:21;;;;;;;3.90;3.40;;;18.80;99.90;;;;;;5027765;28;20191;-76
2022/05/04 08:33:48;;;;;;;5.60;3.87;;;18.90;99.90;;;;;;5027589;28;20237;-76
2022/05/04 08:36:14;;;;;;;13.80;4.63;;;19.00;99.90;;;;;;5027685;28;20421;-77
2022/05/04 08:38:39;;;;;;;15.53;4.87;;;18.90;99.90;;;;;;5027503;28;20457;-76
2022/05/04 08:41:07;;;;;;;5.33;4.03;;;18.80;99.90;;;;;;4993445;28;20366;-76
2022/05/04 08:43:33;;;;;;;3.23;3.03;;;18.70;99.90;;;;;;5027673;28;20214;-76
2022/05/04 08:46:03;;;;;;;6.90;3.37;;;18.60;99.90;;;;;;5009786;28;20569;-76
2022/05/04 08:48:32;;;;;;;4.60;3.20;;;18.50;99.90;;;;;;5027822;28;20441;-76
2022/05/04 08:51:05;;;;;;;4.80;3.67;;;18.50;99.90;;;;;;5009717;28;20450;-76
2022/05/04 08:53:32;;;;;;;4.13;3.57;;;18.30;99.90;;;;;;5027255;28;20418;-76
2022/05/04 08:55:58;;;;;;;4.00;3.20;;;18.10;99.90;;;;;;5027578;28;20790;-77
2022/05/04 08:58:23;;;;;;;4.07;3.53;;;18.00;99.90;;;;;;5027457;28;20444;-76
2022/05/04 09:00:49;;;;;;;3.10;2.80;;;17.80;99.90;;;;;;5010612;28;20440;-75
2022/05/04 09:03:14;;;;;;;4.07;3.77;;;17.70;99.90;;;;;;5030333;28;20611;-76
2022/05/04 09:05:46;;;;;;;7.47;3.97;;;17.70;99.90;;;;;;5010283;28;20208;-74
2022/05/04 09:08:12;;;;;;;5.90;3.90;;;17.60;99.90;;;;;;4993317;28;20209;-75
2022/05/04 09:10:40;;;;;;;5.87;3.40;;;17.50;99.90;;;;;;5009842;28;20438;-75
2022/05/04 09:13:07;;;;;;;5.57;3.40;;;17.40;99.90;;;;;;5009958;28;20435;-76
2022/05/04 09:15:35;;;;;;;4.33;3.57;;;17.50;99.90;;;;;;5027779;28;20510;-76
2022/05/04 09:18:09;;;;;;;4.30;4.00;;;17.60;99.90;;;;;;5009809;28;20457;-76
2022/05/04 09:20:49;;;;;;;4.53;3.80;;;17.60;99.90;;;;;;5009645;28;20467;-77
2022/05/04 09:23:24;;;;;;;3.30;3.00;;;17.60;99.90;;;;;;5027350;28;20898;-76
2022/05/04 09:26:07;;;;;;;3.23;2.93;;;17.70;99.90;;;;;;5011152;28;20541;-76
2022/05/04 09:28:34;;;;;;;3.70;3.40;;;17.90;99.90;;;;;;5030885;28;20451;-76
2022/05/04 09:31:06;;;;;;;18.00;4.13;;;18.30;99.90;;;;;;5031182;28;20412;-77
2022/05/04 09:33:35;;;;;;;6.77;3.47;;;19.40;99.90;;;;;;5013104;28;20500;-77
2022/05/04 09:36:03;;;;;;;5.63;2.67;;;20.30;99.10;;;;;;4996946;28;20530;-76
2022/05/04 09:46:52;;;;;;;3.13;2.83;;;22.40;93.00;;;;;;5030845;28;20414;-76
2022/05/04 09:49:22;;;;;;;3.87;2.90;;;22.80;93.60;;;;;;5012587;28;20434;-76
2022/05/04 09:51:53;;;;;;;3.50;2.77;;;22.90;91.40;;;;;;5030147;28;20428;-76
2022/05/04 09:54:28;;;;;;;6.10;3.40;;;23.20;92.10;;;;;;5030293;28;20399;-76
2022/05/04 09:56:58;;;;;;;25.77;4.70;;;23.50;90.60;;;;;;4996196;28;20511;-77
2022/05/04 09:59:26;;;;;;;32.63;5.70;;;23.50;90.70;;;;;;5030407;28;20967;-76
2022/05/04 10:01:53;;;;;;;5.83;2.70;;;23.80;90.50;;;;;;5030837;28;20407;-76
2022/05/04 10:04:20;;;;;;;12.93;3.97;;;23.90;88.50;;;;;;5030491;28;20412;-76
2022/05/04 10:06:53;;;;;;;5.00;2.83;;;24.20;90.40;;;;;;5030406;28;20529;-77
2022/05/04 10:09:20;;;;;;;2.60;2.40;;;24.50;88.30;;;;;;5030281;28;20484;-76
2022/05/04 10:11:59;;;;;;;2.60;2.40;;;24.60;81.40;;;;;;5030446;28;20479;-77
2022/05/04 10:14:26;;;;;;;3.73;1.73;;;24.60;80.80;;;;;;5030685;28;20451;-77
2022/05/04 10:17:27;;;;;;;2.20;1.90;;;24.90;76.50;;;;;;5031386;28;20428;-76
2022/05/04 10:20:08;;;;;;;5.37;2.30;;;25.10;76.50;;;;;;5027415;28;20460;-76
2022/05/04 10:22:41;;;;;;;3.37;2.30;;;25.20;71.00;;;;;;5031476;28;20417;-77
2022/05/04 10:25:08;;;;;;;2.67;1.90;;;24.90;71.00;;;;;;5033317;28;20537;-76
2022/05/04 10:27:39;;;;;;;5.73;2.50;;;24.30;78.00;;;;;;5032595;28;20424;-76
2022/05/04 10:32:55;;;;;;;3.70;2.13;;;22.80;77.40;;;;;;5045763;28;20423;-77
2022/05/04 10:35:40;;;;;;;4.90;2.97;;;22.10;82.90;;;;;;5055033;28;20498;-77
2022/05/04 10:38:24;;;;;;;3.50;2.40;;;21.50;85.90;;;;;;5031182;28;20445;-77
2022/05/04 10:41:02;;;;;;;2.60;2.40;;;21.00;85.50;;;;;;5013094;28;20414;-76
2022/05/04 10:43:38;;;;;;;2.90;2.60;;;20.70;90.00;;;;;;5030731;28;20427;-77
2022/05/04 10:46:10;;;;;;;4.93;2.60;;;20.40;87.90;;;;;;5030635;28;20470;-76
2022/05/04 10:48:36;;;;;;;8.23;2.70;;;20.10;89.60;;;;;;5030602;28;20461;-76
2022/05/04 10:51:03;;;;;;;3.40;2.83;;;19.90;90.50;;;;;;5031149;28;20520;-76
2022/05/04 10:53:29;;;;;;;3.50;2.73;;;19.80;92.20;;;;;;5031978;28;20782;-76
2022/05/04 10:56:10;;;;;;;8.07;3.13;;;19.70;93.10;;;;;;5030051;28;20422;-76
2022/05/04 10:58:39;;;;;;;3.60;2.30;;;19.60;93.10;;;;;;5030155;28;20450;-75
2022/05/04 11:01:26;;;;;;;3.43;2.60;;;19.40;94.10;;;;;;5030218;28;20514;-76
2022/05/04 11:04:05;;;;;;;3.80;3.50;;;19.30;94.40;;;;;;5012616;28;20952;-76
2022/05/04 11:06:39;;;;;;;2.83;2.63;;;19.20;95.90;;;;;;5029668;28;20471;-76
2022/05/04 11:09:09;;;;;;;4.47;3.30;;;19.10;97.60;;;;;;5029772;28;20474;-76
2022/05/04 11:11:37;;;;;;;4.80;3.47;;;19.10;98.30;;;;;;5011680;28;20544;-76
2022/05/04 11:14:05;;;;;;;8.80;3.60;;;19.10;97.70;;;;;;5029711;28;20427;-77
2022/05/04 11:16:31;;;;;;;4.40;3.60;;;19.10;97.80;;;;;;5011511;28;20423;-76
2022/05/04 11:19:04;;;;;;;5.33;4.00;;;19.00;98.00;;;;;;5029513;28;20443;-76
2022/05/04 11:21:31;;;;;;;6.67;4.70;;;19.00;98.40;;;;;;4995149;28;20995;-76
2022/05/04 11:23:59;;;;;;;4.63;3.30;;;19.10;98.20;;;;;;5011552;28;20431;-77
2022/05/04 11:26:27;;;;;;;6.10;3.90;;;19.10;99.30;;;;;;5029216;28;20496;-76
2022/05/04 11:28:53;;;;;;;6.23;3.83;;;19.30;99.40;;;;;;5029401;28;20524;-77
2022/05/04 11:31:20;;;;;;;3.93;3.63;;;19.20;97.90;;;;;;5010947;28;20435;-76
2022/05/04 11:33:48;;;;;;;3.33;3.03;;;19.30;99.40;;;;;;5028736;28;20415;-76
2022/05/04 11:36:17;;;;;;;5.87;3.97;;;19.60;98.60;;;;;;5028694;28;20791;-76
2022/05/04 11:38:46;;;;;;;7.23;3.70;;;19.80;97.40;;;;;;5028667;28;20444;-76
2022/05/04 11:41:13;;;;;;;8.10;3.23;;;20.00;96.70;;;;;;5028669;28;20425;-77
2022/05/04 11:43:40;;;;;;;6.47;3.27;;;20.40;96.50;;;;;;5011110;28;20428;-76
2022/05/04 11:46:11;;;;;;;13.27;3.30;;;20.40;96.80;;;;;;5010367;28;20991;-76
2022/05/04 11:48:42;;;;;;;3.80;3.43;;;20.60;97.10;;;;;;5009591;28;20506;-77
2022/05/04 11:51:12;;;;;;;4.50;3.20;;;20.40;96.20;;;;;;5028241;28;20489;-76
2022/05/04 11:53:39;;;;;;;8.60;3.50;;;20.80;97.20;;;;;;5028321;28;20418;-76
2022/05/04 11:56:08;;;;;;;4.83;3.70;;;21.00;94.70;;;;;;5028106;28;20426;-76
2022/05/04 11:58:37;;;;;;;9.13;4.17;;;21.10;95.70;;;;;;5028122;28;20449;-76
2022/05/04 12:01:06;;;;;;;3.67;3.37;;;21.10;93.90;;;;;;5028151;28;20430;-76
2022/05/04 12:03:35;;;;;;;5.20;3.50;;;21.30;95.00;;;;;;5027940;28;20481;-77
2022/05/04 12:06:09;;;;;;;4.90;3.77;;;21.30;94.50;;;;;;5027792;28;20466;-77
2022/05/04 12:08:36;;;;;;;9.10;3.77;;;21.30;93.90;;;;;;5027937;28;20449;-76
2022/05/04 12:11:04;;;;;;;8.20;3.50;;;21.10;94.80;;;;;;5027989;28;20500;-77
2022/05/04 12:13:39;;;;;;;9.20;4.03;;;21.00;94.00;;;;;;5028030;28;20793;-76
2022/05/04 12:16:06;;;;;;;4.23;3.83;;;20.80;95.00;;;;;;5027849;28;20415;-76
2022/05/04 12:18:34;;;;;;;4.43;3.20;;;20.80;94.10;;;;;;5027700;28;20458;-76
2022/05/04 12:21:07;;;;;;;4.67;3.60;;;20.60;95.30;;;;;;5009860;28;20450;-76
2022/05/04 12:23:35;;;;;;;4.13;3.50;;;20.50;96.50;;;;;;5027691;28;20425;-76
2022/05/04 12:26:01;;;;;;;9.13;3.50;;;20.50;96.90;;;;;;5027536;28;20470;-77
2022/05/04 12:28:27;;;;;;;3.73;3.30;;;20.30;96.90;;;;;;5009811;28;20439;-76
2022/05/04 12:33:37;;;;;;;5.90;3.57;;;20.10;98.60;;;;;;5027611;28;20832;-77
2022/05/04 12:36:09;;;;;;;5.17;2.97;;;20.00;97.40;;;;;;5009736;28;20426;-78
2022/05/04 12:38:36;;;;;;;3.57;3.27;;;19.90;98.80;;;;;;5027322;28;20215;-76
2022/05/04 12:41:05;;;;;;;4.33;3.20;;;19.80;97.50;;;;;;5027346;28;20923;-77
2022/05/04 12:43:37;;;;;;;3.50;3.17;;;19.60;96.60;;;;;;5027324;28;20530;-76
2022/05/04 12:46:07;;;;;;;6.83;3.10;;;19.50;99.90;;;;;;5027116;28;20467;-76
2022/05/04 12:48:35;;;;;;;5.33;2.93;;;19.20;97.20;;;;;;5027233;28;20446;-76
2022/05/04 12:51:01;;;;;;;5.77;2.30;;;18.80;98.60;;;;;;5027313;28;20483;-77
2022/05/04 12:53:27;;;;;;;5.57;2.93;;;18.60;96.90;;;;;;5009226;28;20430;-77
2022/05/04 12:58:37;;;;;;;5.27;3.13;;;17.60;98.60;;;;;;5027562;28;21095;-76
2022/05/04 13:01:04;;;;;;;5.00;2.40;;;17.30;99.90;;;;;;5029664;28;20456;-77
2022/05/04 13:03:33;;;;;;;6.60;2.73;;;17.10;99.90;;;;;;5013351;28;20441;-76
2022/05/04 13:06:00;;;;;;;8.30;2.70;;;16.80;99.90;;;;;;5031206;28;20523;-76
2022/05/04 13:08:26;;;;;;;4.60;2.90;;;16.80;99.90;;;;;;5031082;28;20912;-75
2022/05/04 13:10:52;;;;;;;4.63;2.70;;;16.70;99.90;;;;;;5013730;28;20448;-76
2022/05/04 13:13:19;;;;;;;3.10;2.80;;;16.50;99.90;;;;;;5013028;28;20214;-76
2022/05/04 13:15:45;;;;;;;3.20;2.70;;;16.40;99.90;;;;;;5013196;28;20806;-76
2022/05/04 13:18:11;;;;;;;4.60;2.77;;;16.10;99.90;;;;;;5031104;28;20461;-76
2022/05/04 13:20:38;;;;;;;7.30;2.80;;;15.70;99.90;;;;;;5031227;28;20428;-75
2022/05/04 13:23:04;;;;;;;3.67;3.13;;;15.60;99.90;;;;;;5030963;28;20186;-76
2022/05/04 13:25:29;;;;;;;5.90;2.80;;;15.60;99.90;;;;;;5030738;28;20509;-76
2022/05/04 13:27:55;;;;;;;2.80;2.60;;;15.60;99.90;;;;;;5012653;28;20940;-76